Time;durP1;ratioP1;P1;durP2;ratioP2;P2;SDS_P1;SDS_P2;PMS_P1;PMS_P2;Temp;Humidity;BMP_temperature;BMP_pressure;BME280_temperature;BME280_humidity;BME280_pressure;Samples;Min_cycle;Max_cycle;Signal;HPM_P1;HPM_P2
2023/03/14 00:02:21;;;;;;;3.30;1.10;;;10.10;88.90;;;;;;4777711;28;20504;-59
2023/03/14 00:04:57;;;;;;;5.32;1.50;;;10.10;88.90;;;;;;4775319;28;20066;-58
2023/03/14 00:07:33;;;;;;;2.97;1.17;;;10.20;88.80;;;;;;4794116;28;20057;-57
2023/03/14 00:10:10;;;;;;;1.60;0.77;;;10.10;88.70;;;;;;4796800;28;20081;-58
2023/03/14 00:12:44;;;;;;;2.10;0.85;;;10.20;88.70;;;;;;4796289;28;20184;-57
2023/03/14 00:15:18;;;;;;;1.88;0.57;;;10.20;88.70;;;;;;4780176;28;21559;-61
2023/03/14 00:17:51;;;;;;;1.80;0.70;;;10.20;88.70;;;;;;4799388;28;20122;-61
2023/03/14 00:20:25;;;;;;;3.00;0.60;;;10.20;88.60;;;;;;4801833;28;20815;-58
2023/03/14 00:22:59;;;;;;;1.83;0.60;;;10.20;88.50;;;;;;4797228;28;20706;-60
2023/03/14 00:25:32;;;;;;;1.33;0.57;;;10.20;88.40;;;;;;4798733;28;21060;-62
2023/03/14 00:28:05;;;;;;;1.63;0.60;;;10.20;88.30;;;;;;4797983;28;20042;-62
2023/03/14 00:30:40;;;;;;;1.05;0.50;;;10.20;88.40;;;;;;4767090;28;20051;-60
2023/03/14 00:33:21;;;;;;;1.35;0.50;;;10.20;88.30;;;;;;4781875;28;20049;-61
2023/03/14 00:35:56;;;;;;;1.42;0.60;;;10.20;88.20;;;;;;4779506;28;20876;-67
2023/03/14 00:38:31;;;;;;;1.42;0.60;;;10.20;88.10;;;;;;4780146;28;20177;-67
2023/03/14 00:41:06;;;;;;;1.27;0.50;;;10.20;88.00;;;;;;4778814;28;20682;-67
2023/03/14 00:43:40;;;;;;;0.98;0.70;;;10.30;88.00;;;;;;4779495;28;20061;-68
2023/03/14 00:46:14;;;;;;;2.20;0.50;;;10.20;88.00;;;;;;4777933;28;21091;-67
2023/03/14 00:48:48;;;;;;;1.33;0.50;;;10.20;87.90;;;;;;4782218;28;20089;-69
2023/03/14 00:51:25;;;;;;;2.03;0.60;;;10.30;87.80;;;;;;4780128;28;20717;-68
2023/03/14 00:53:58;;;;;;;1.17;0.43;;;10.30;87.80;;;;;;4780257;28;20050;-67
2023/03/14 00:56:32;;;;;;;1.25;0.50;;;10.30;87.80;;;;;;4780049;28;20590;-68
2023/03/14 00:59:05;;;;;;;2.72;0.50;;;10.30;87.70;;;;;;4790382;28;20690;-63
2023/03/14 01:01:39;;;;;;;2.45;0.60;;;10.30;87.60;;;;;;4767270;28;20054;-61
2023/03/14 01:04:13;;;;;;;1.45;0.57;;;10.30;87.60;;;;;;4780499;28;20047;-69
2023/03/14 01:06:48;;;;;;;1.63;0.50;;;10.30;87.60;;;;;;4777677;28;20051;-69
2023/03/14 01:09:22;;;;;;;1.85;0.73;;;10.30;87.50;;;;;;4800817;28;20630;-61
2023/03/14 01:11:55;;;;;;;2.90;0.90;;;10.30;87.30;;;;;;4784672;28;20062;-60
2023/03/14 01:14:28;;;;;;;2.35;0.80;;;10.30;87.30;;;;;;4798511;28;20695;-61
2023/03/14 01:17:02;;;;;;;4.07;1.25;;;10.40;87.30;;;;;;4817261;28;20049;-60
2023/03/14 01:19:35;;;;;;;3.17;1.02;;;10.30;87.30;;;;;;4818532;28;20049;-60
2023/03/14 01:22:09;;;;;;;4.32;1.10;;;10.30;87.20;;;;;;4816323;28;20060;-59
2023/03/14 01:24:43;;;;;;;2.85;0.70;;;10.30;87.20;;;;;;4799045;28;20058;-59
2023/03/14 01:27:16;;;;;;;4.05;0.70;;;10.20;87.10;;;;;;4828839;28;21093;-61
2023/03/14 01:29:49;;;;;;;4.97;0.90;;;10.30;87.10;;;;;;4954719;28;20507;-61
2023/03/14 01:32:28;;;;;;;4.47;0.88;;;10.30;87.10;;;;;;5033188;28;20107;-62
2023/03/14 01:35:09;;;;;;;2.45;0.70;;;10.20;87.00;;;;;;5031514;28;20053;-60
2023/03/14 01:37:44;;;;;;;3.35;0.70;;;10.20;87.00;;;;;;5017724;28;20477;-60
2023/03/14 01:40:22;;;;;;;2.55;0.70;;;10.20;86.90;;;;;;5028603;28;20443;-60
2023/03/14 01:42:58;;;;;;;3.00;0.73;;;10.20;86.80;;;;;;5033374;28;20146;-60
2023/03/14 01:46:13;;;;;;;2.05;0.90;;;10.20;86.90;;;;;;5017485;28;20065;-63
2023/03/14 01:48:53;;;;;;;2.70;0.88;;;10.20;87.00;;;;;;5018567;28;20056;-62
2023/03/14 01:51:32;;;;;;;5.28;0.90;;;10.20;86.90;;;;;;5020255;28;20114;-62
2023/03/14 01:54:15;;;;;;;2.50;0.90;;;10.20;86.80;;;;;;5036550;28;20045;-69
2023/03/14 01:56:54;;;;;;;2.70;0.80;;;10.20;86.80;;;;;;5014895;28;20065;-68
2023/03/14 01:59:28;;;;;;;3.88;0.90;;;10.20;86.80;;;;;;5033761;28;20076;-60
2023/03/14 02:02:03;;;;;;;2.35;0.80;;;10.20;86.80;;;;;;5009840;28;20542;-61
2023/03/14 02:04:40;;;;;;;3.60;0.70;;;10.20;86.80;;;;;;5009136;28;20745;-67
2023/03/14 02:07:19;;;;;;;3.72;0.80;;;10.20;86.80;;;;;;5011315;28;20076;-68
2023/03/14 02:10:04;;;;;;;2.97;0.70;;;10.20;86.70;;;;;;5025470;28;20041;-68
2023/03/14 02:12:38;;;;;;;2.38;0.80;;;10.20;86.70;;;;;;5014853;28;20065;-67
2023/03/14 02:15:28;;;;;;;3.15;0.80;;;10.20;86.60;;;;;;5027919;28;20103;-68
2023/03/14 02:18:14;;;;;;;1.58;0.60;;;10.20;86.50;;;;;;5033058;28;20037;-68
2023/03/14 02:21:04;;;;;;;5.18;0.80;;;10.20;86.60;;;;;;5034658;28;20046;-67
2023/03/14 02:23:54;;;;;;;7.07;1.20;;;10.20;86.40;;;;;;5017502;28;20403;-68
2023/03/14 02:26:40;;;;;;;4.00;1.25;;;10.20;86.30;;;;;;5017283;28;20043;-67
2023/03/14 02:29:14;;;;;;;;;;;10.20;86.20;;;;;;5024011;28;20171;-68
2023/03/14 02:31:55;;;;;;;3.00;0.47;;;10.20;86.10;;;;;;5025917;28;19921;-69
2023/03/14 02:34:37;;;;;;;4.45;0.77;;;10.20;86.00;;;;;;5025045;28;20044;-67
2023/03/14 02:37:11;;;;;;;5.10;0.82;;;10.10;85.80;;;;;;4974780;28;20045;-69
2023/03/14 02:39:47;;;;;;;5.28;0.77;;;10.10;85.90;;;;;;5016904;28;20049;-60
2023/03/14 02:42:22;;;;;;;5.28;0.70;;;10.10;85.90;;;;;;5016643;28;20081;-61
2023/03/14 02:45:21;;;;;;;2.22;0.65;;;10.10;85.80;;;;;;5017605;28;20061;-61
2023/03/14 02:48:02;;;;;;;3.70;0.80;;;10.20;85.80;;;;;;5009336;28;20081;-63
2023/03/14 02:50:39;;;;;;;2.65;0.75;;;10.10;85.80;;;;;;5019212;28;20057;-66
2023/03/14 02:53:15;;;;;;;3.30;0.90;;;10.10;85.80;;;;;;4841621;28;20159;-65
2023/03/14 02:55:49;;;;;;;2.50;0.63;;;10.10;85.90;;;;;;4797095;28;21607;-60
2023/03/14 02:58:25;;;;;;;4.13;0.65;;;10.10;85.90;;;;;;4818267;28;21669;-61
2023/03/14 03:01:08;;;;;;;3.03;0.90;;;10.10;86.00;;;;;;4798570;28;20054;-63
2023/03/14 03:03:42;;;;;;;2.05;0.68;;;10.10;86.00;;;;;;4844078;28;20056;-62
2023/03/14 03:06:15;;;;;;;2.08;0.50;;;10.10;86.00;;;;;;5017553;28;20052;-61
2023/03/14 03:08:49;;;;;;;5.10;1.00;;;10.10;86.00;;;;;;5033189;28;20052;-61
2023/03/14 03:11:22;;;;;;;4.10;0.80;;;10.10;86.10;;;;;;5010930;28;20041;-61
2023/03/14 03:13:55;;;;;;;2.50;0.77;;;10.10;86.10;;;;;;5033802;28;20045;-66
2023/03/14 03:16:31;;;;;;;2.30;0.70;;;10.10;86.10;;;;;;5026522;28;20036;-66
2023/03/14 03:19:04;;;;;;;2.40;0.95;;;10.10;86.00;;;;;;5008247;28;20095;-63
2023/03/14 03:21:37;;;;;;;1.55;0.60;;;10.20;85.90;;;;;;5031836;28;20119;-62
2023/03/14 03:24:12;;;;;;;3.88;0.98;;;10.20;85.90;;;;;;5033902;28;20103;-59
2023/03/14 03:26:46;;;;;;;1.83;0.55;;;10.20;85.80;;;;;;5017373;28;20446;-58
2023/03/14 03:29:19;;;;;;;2.78;0.60;;;10.10;85.80;;;;;;5025156;28;20103;-58
2023/03/14 03:32:00;;;;;;;3.03;0.70;;;10.20;85.70;;;;;;4871545;28;20069;-59
2023/03/14 03:34:41;;;;;;;4.20;0.60;;;10.10;85.70;;;;;;4818301;28;20188;-60
2023/03/14 03:37:14;;;;;;;2.50;0.60;;;10.10;85.60;;;;;;4794500;28;20172;-59
2023/03/14 03:39:50;;;;;;;3.72;0.60;;;10.10;85.50;;;;;;4815084;28;20057;-63
2023/03/14 03:42:24;;;;;;;3.40;0.80;;;10.10;85.50;;;;;;4798156;28;20064;-60
2023/03/14 03:44:58;;;;;;;4.60;0.85;;;10.10;85.50;;;;;;4793549;28;20060;-61
2023/03/14 03:47:37;;;;;;;4.68;0.98;;;10.20;85.50;;;;;;4799649;28;20180;-61
2023/03/14 03:50:11;;;;;;;2.60;0.50;;;10.20;85.40;;;;;;4817743;28;20058;-68
2023/03/14 03:52:45;;;;;;;2.88;0.95;;;10.10;85.40;;;;;;4952107;28;20046;-69
2023/03/14 03:55:18;;;;;;;0.95;0.47;;;10.20;85.40;;;;;;5029928;28;20038;-61
2023/03/14 03:57:51;;;;;;;3.47;0.70;;;10.10;85.50;;;;;;5030315;28;20077;-59
2023/03/14 04:00:24;;;;;;;2.50;0.50;;;10.10;85.50;;;;;;5021411;28;20060;-59
2023/03/14 04:03:00;;;;;;;4.82;0.70;;;10.10;85.50;;;;;;5010486;28;20623;-59
2023/03/14 04:05:35;;;;;;;2.60;0.60;;;10.20;85.50;;;;;;5011338;28;20048;-58
2023/03/14 04:08:09;;;;;;;2.35;0.80;;;10.10;85.60;;;;;;5036420;28;20050;-59
2023/03/14 04:10:43;;;;;;;1.60;0.52;;;10.10;85.50;;;;;;5038154;28;20045;-62
2023/03/14 04:13:21;;;;;;;2.10;0.55;;;10.10;85.50;;;;;;5022117;28;20056;-63
2023/03/14 04:15:57;;;;;;;2.03;0.60;;;10.10;85.40;;;;;;5038404;28;20056;-58
2023/03/14 04:18:31;;;;;;;1.90;0.50;;;10.10;85.50;;;;;;5023658;28;20045;-58
2023/03/14 04:21:05;;;;;;;2.45;0.57;;;10.10;85.40;;;;;;5039603;28;20048;-59
2023/03/14 04:23:48;;;;;;;3.28;0.70;;;10.10;85.40;;;;;;5027850;28;20516;-63
2023/03/14 04:26:21;;;;;;;3.17;0.60;;;10.10;85.40;;;;;;4939890;28;20061;-62
2023/03/14 04:28:48;;;;;;;5.32;0.63;;;10.10;85.30;;;;;;4982148;28;20071;-62
2023/03/14 04:31:23;;;;;;;3.13;0.60;;;10.10;85.20;;;;;;5012704;28;20045;-62
2023/03/14 04:34:05;;;;;;;3.53;0.70;;;10.10;85.20;;;;;;5036438;28;20483;-63
2023/03/14 04:36:45;;;;;;;5.00;0.65;;;10.10;85.20;;;;;;5012757;28;20045;-62
2023/03/14 04:39:24;;;;;;;3.22;0.65;;;10.10;85.10;;;;;;5035954;28;20046;-61
2023/03/14 04:42:15;;;;;;;5.20;0.88;;;10.10;85.00;;;;;;5020060;28;20413;-61
2023/03/14 04:44:49;;;;;;;3.55;0.75;;;10.10;85.00;;;;;;5033704;28;20040;-58
2023/03/14 04:47:25;;;;;;;2.03;0.60;;;10.20;85.10;;;;;;5035127;28;20099;-59
2023/03/14 04:50:02;;;;;;;4.75;0.90;;;10.10;85.00;;;;;;5023610;28;20049;-61
2023/03/14 04:52:35;;;;;;;5.03;0.80;;;10.20;84.90;;;;;;5019289;28;20084;-62
2023/03/14 04:55:08;;;;;;;2.47;0.65;;;10.10;84.80;;;;;;5037373;28;20455;-62
2023/03/14 04:57:42;;;;;;;5.72;0.80;;;10.10;84.90;;;;;;5036938;28;20033;-62
2023/03/14 05:00:17;;;;;;;2.80;0.80;;;10.20;84.80;;;;;;5036484;28;20065;-65
2023/03/14 05:03:10;;;;;;;2.22;0.57;;;10.20;84.80;;;;;;5036555;28;20049;-66
2023/03/14 05:06:23;;;;;;;3.13;0.70;;;10.10;84.80;;;;;;4939725;28;20612;-68
2023/03/14 05:09:15;;;;;;;2.95;0.57;;;10.10;84.80;;;;;;4940143;29;20054;-63
2023/03/14 05:12:00;;;;;;;2.88;0.90;;;10.10;84.60;;;;;;5013767;28;20167;-62
2023/03/14 05:14:55;;;;;;;2.08;0.52;;;10.10;84.50;;;;;;5034201;28;20099;-66
2023/03/14 05:17:41;;;;;;;2.28;0.60;;;10.10;84.50;;;;;;5025599;28;20068;-64
2023/03/14 05:20:52;;;;;;;3.25;0.50;;;10.10;84.50;;;;;;4977057;28;20042;-61
2023/03/14 05:23:46;;;;;;;4.85;0.98;;;10.10;84.40;;;;;;4959957;28;20046;-61
2023/03/14 05:26:37;;;;;;;2.30;0.40;;;10.10;84.30;;;;;;5025831;28;20127;-64
2023/03/14 05:29:26;;;;;;;3.13;0.65;;;10.10;84.20;;;;;;5015116;28;20053;-62
2023/03/14 05:32:17;;;;;;;2.80;0.57;;;10.10;84.20;;;;;;5027386;28;20053;-62
2023/03/14 05:35:16;;;;;;;1.73;0.50;;;10.10;84.20;;;;;;5037322;28;20140;-65
2023/03/14 05:38:18;;;;;;;2.63;0.40;;;10.10;84.30;;;;;;5037039;28;20041;-66
2023/03/14 05:41:15;;;;;;;1.65;0.40;;;10.10;84.30;;;;;;5009075;28;20053;-66
2023/03/14 05:43:58;;;;;;;2.72;0.70;;;10.10;84.50;;;;;;5033950;28;20491;-66
2023/03/14 05:46:59;;;;;;;2.72;0.50;;;10.10;84.50;;;;;;5022649;28;20072;-66
2023/03/14 05:49:59;;;;;;;2.80;0.52;;;10.10;84.60;;;;;;4992558;28;20045;-59
2023/03/14 05:52:48;;;;;;;5.07;0.98;;;10.10;84.50;;;;;;5034817;28;20056;-59
2023/03/14 05:55:42;;;;;;;1.70;0.60;;;10.10;84.60;;;;;;5034904;28;20099;-62
2023/03/14 05:58:30;;;;;;;2.58;0.73;;;10.10;84.40;;;;;;5036349;28;20051;-62
2023/03/14 06:01:26;;;;;;;4.55;0.63;;;10.10;84.40;;;;;;5034518;28;20055;-62
2023/03/14 06:04:19;;;;;;;2.67;0.65;;;10.10;84.40;;;;;;5010069;28;20049;-60
2023/03/14 06:06:57;;;;;;;3.45;0.60;;;10.10;84.40;;;;;;5027887;28;20353;-61
2023/03/14 06:09:31;;;;;;;3.05;0.52;;;10.10;84.30;;;;;;5019042;28;20092;-59
2023/03/14 06:12:12;;;;;;;2.97;0.80;;;10.10;84.30;;;;;;5034532;28;20078;-59
2023/03/14 06:14:48;;;;;;;1.42;0.40;;;10.10;84.10;;;;;;5018675;28;20052;-67
2023/03/14 06:17:22;;;;;;;1.67;0.43;;;10.10;84.10;;;;;;5010001;28;20084;-66
2023/03/14 06:20:02;;;;;;;2.47;0.68;;;10.10;84.00;;;;;;5017264;28;20056;-58
2023/03/14 06:22:36;;;;;;;1.92;0.50;;;10.10;83.90;;;;;;5032380;28;20091;-59
2023/03/14 06:25:12;;;;;;;4.32;1.10;;;10.10;84.00;;;;;;5037440;28;20169;-67
2023/03/14 06:27:48;;;;;;;3.95;0.77;;;10.10;84.10;;;;;;5036925;28;20053;-67
2023/03/14 06:30:18;;;;;;;4.43;1.10;;;10.10;84.40;;;;;;5027808;28;20141;-67
2023/03/14 06:32:52;;;;;;;3.00;0.40;;;10.10;84.70;;;;;;5033033;28;20050;-66
2023/03/14 06:35:27;;;;;;;2.42;0.80;;;10.10;85.00;;;;;;5027400;28;20045;-61
2023/03/14 06:38:00;;;;;;;2.67;0.68;;;10.00;85.10;;;;;;5013995;28;20593;-60
2023/03/14 06:40:33;;;;;;;2.28;0.50;;;10.10;85.40;;;;;;5009864;28;20443;-60
2023/03/14 06:43:13;;;;;;;4.40;0.70;;;10.10;85.70;;;;;;5021282;28;20531;-61
2023/03/14 06:45:48;;;;;;;4.13;0.90;;;10.10;85.80;;;;;;5003091;28;20147;-62
2023/03/14 06:48:22;;;;;;;2.55;0.60;;;10.10;86.10;;;;;;5006952;28;20131;-61
2023/03/14 06:50:56;;;;;;;5.63;0.70;;;10.00;86.20;;;;;;5015448;28;20128;-61
2023/03/14 06:53:29;;;;;;;2.63;0.70;;;10.10;86.10;;;;;;5030103;28;20139;-62
2023/03/14 06:56:03;;;;;;;1.73;0.70;;;10.10;86.70;;;;;;5014908;28;20054;-61
2023/03/14 06:58:37;;;;;;;3.08;0.77;;;10.10;86.80;;;;;;5008074;28;20124;-61
2023/03/14 07:01:21;;;;;;;4.80;1.90;;;10.10;87.00;;;;;;5022805;28;20045;-62
2023/03/14 07:04:01;;;;;;;3.20;0.90;;;10.10;87.00;;;;;;5016478;28;20083;-63
2023/03/14 07:06:36;;;;;;;3.15;1.13;;;10.10;87.20;;;;;;5029180;28;20161;-63
2023/03/14 07:09:10;;;;;;;4.97;1.35;;;10.10;86.90;;;;;;5022959;28;20041;-66
2023/03/14 07:11:50;;;;;;;2.55;1.00;;;10.20;87.10;;;;;;5010511;28;20060;-66
2023/03/14 07:14:23;;;;;;;4.15;1.30;;;10.20;87.10;;;;;;5014930;28;20763;-64
2023/03/14 07:16:58;;;;;;;4.13;0.82;;;10.20;87.50;;;;;;5028280;28;20057;-65
2023/03/14 07:19:32;;;;;;;4.93;1.02;;;10.10;87.70;;;;;;5024425;28;20041;-59
2023/03/14 07:22:05;;;;;;;2.38;0.73;;;10.10;87.60;;;;;;5022511;28;20047;-58
2023/03/14 07:24:39;;;;;;;2.53;0.65;;;10.10;87.60;;;;;;5021662;28;20679;-61
2023/03/14 07:27:12;;;;;;;2.90;0.95;;;10.10;87.60;;;;;;5030215;28;20052;-62
2023/03/14 07:29:45;;;;;;;1.77;0.60;;;10.10;87.50;;;;;;5025615;28;20550;-61
2023/03/14 07:32:20;;;;;;;4.30;0.50;;;10.10;87.50;;;;;;5026476;28;20052;-62
2023/03/14 07:34:53;;;;;;;3.13;1.00;;;10.10;87.60;;;;;;5008713;28;20492;-65
2023/03/14 07:37:26;;;;;;;3.40;0.82;;;10.10;87.50;;;;;;5004578;28;20488;-64
2023/03/14 07:40:05;;;;;;;3.83;0.80;;;10.10;87.60;;;;;;5016870;28;20049;-60
2023/03/14 07:42:38;;;;;;;3.35;0.60;;;10.10;87.60;;;;;;5002461;28;20045;-60
2023/03/14 07:45:16;;;;;;;3.95;1.00;;;10.10;87.50;;;;;;5005307;28;20144;-63
2023/03/14 07:47:50;;;;;;;3.20;0.68;;;10.10;87.40;;;;;;5021113;28;20050;-61
2023/03/14 07:50:24;;;;;;;1.83;0.68;;;10.10;87.50;;;;;;5023437;28;20045;-60
2023/03/14 07:52:58;;;;;;;1.85;0.50;;;10.00;87.20;;;;;;5032006;28;20136;-60
2023/03/14 07:55:31;;;;;;;2.55;0.65;;;10.10;87.30;;;;;;5035796;28;20057;-61
2023/03/14 07:58:04;;;;;;;3.28;0.40;;;10.10;87.40;;;;;;5032528;28;20041;-60
2023/03/14 08:00:37;;;;;;;2.00;0.60;;;10.10;87.20;;;;;;5033538;28;20890;-58
2023/03/14 08:03:12;;;;;;;3.88;0.88;;;10.10;87.50;;;;;;5031339;28;20077;-58
2023/03/14 08:05:49;;;;;;;3.38;0.93;;;10.10;87.40;;;;;;5031805;28;20045;-59
2023/03/14 08:08:22;;;;;;;2.75;0.50;;;10.10;87.70;;;;;;5029652;28;20041;-58
2023/03/14 08:10:55;;;;;;;2.90;0.88;;;10.10;87.40;;;;;;5032906;28;20808;-61
2023/03/14 08:13:28;;;;;;;2.10;0.70;;;10.10;87.40;;;;;;5028882;28;20090;-61
2023/03/14 08:16:01;;;;;;;1.70;0.52;;;10.10;87.40;;;;;;5031513;28;20044;-59
2023/03/14 08:18:35;;;;;;;1.90;0.63;;;10.10;87.30;;;;;;5024878;28;20052;-58
2023/03/14 08:21:09;;;;;;;2.30;0.73;;;10.10;87.60;;;;;;5033994;28;20801;-59
2023/03/14 08:23:42;;;;;;;1.65;0.52;;;10.10;87.80;;;;;;5032128;28;20045;-59
2023/03/14 08:26:15;;;;;;;2.72;0.73;;;10.10;87.60;;;;;;5030254;28;20041;-58
2023/03/14 08:28:49;;;;;;;3.65;0.70;;;10.10;87.60;;;;;;5032744;28;20064;-59
2023/03/14 08:31:22;;;;;;;3.85;0.90;;;10.10;87.60;;;;;;5027899;28;20141;-68
2023/03/14 08:34:04;;;;;;;2.78;0.82;;;10.20;87.60;;;;;;5014187;28;20136;-60
2023/03/14 08:36:37;;;;;;;2.92;0.73;;;10.20;87.30;;;;;;5032623;28;20045;-61
2023/03/14 08:39:10;;;;;;;2.13;0.70;;;10.20;87.20;;;;;;5031690;28;20049;-60
2023/03/14 08:41:44;;;;;;;5.07;0.70;;;10.20;87.30;;;;;;5014087;28;20056;-62
2023/03/14 08:44:17;;;;;;;2.38;0.50;;;10.20;87.10;;;;;;5015153;28;20049;-64
2023/03/14 08:46:50;;;;;;;2.05;0.60;;;10.30;87.00;;;;;;5002977;28;20045;-65
2023/03/14 08:49:24;;;;;;;2.88;0.88;;;10.20;87.10;;;;;;5014932;28;20542;-60
2023/03/14 08:51:58;;;;;;;2.58;0.52;;;10.20;87.00;;;;;;5016082;28;20057;-60
2023/03/14 08:54:32;;;;;;;6.30;2.25;;;10.20;86.90;;;;;;5018498;28;20045;-60
2023/03/14 08:57:05;;;;;;;5.90;2.25;;;10.20;86.80;;;;;;5016611;28;20038;-60
2023/03/14 08:59:38;;;;;;;5.13;1.52;;;10.20;86.80;;;;;;5016315;28;20140;-60
2023/03/14 09:02:12;;;;;;;5.18;1.20;;;10.20;86.80;;;;;;5014078;28;20070;-61
2023/03/14 09:04:47;;;;;;;2.70;1.00;;;10.20;86.80;;;;;;5017158;28;20130;-65
2023/03/14 09:07:21;;;;;;;1.73;0.50;;;10.20;86.60;;;;;;5014075;28;20048;-66
2023/03/14 09:09:54;;;;;;;4.80;0.90;;;10.20;86.60;;;;;;5017987;28;20053;-61
2023/03/14 09:12:27;;;;;;;3.10;0.63;;;10.30;86.60;;;;;;5012718;28;20172;-61
2023/03/14 09:15:00;;;;;;;3.08;0.80;;;10.30;86.40;;;;;;5015881;28;20128;-60
2023/03/14 09:17:33;;;;;;;2.90;0.73;;;10.30;86.20;;;;;;5015540;28;20473;-60
2023/03/14 09:20:09;;;;;;;4.20;1.00;;;10.30;86.20;;;;;;5017304;28;20056;-60
2023/03/14 09:22:42;;;;;;;3.38;1.02;;;10.40;86.20;;;;;;5017230;28;20077;-61
2023/03/14 09:25:15;;;;;;;3.15;0.73;;;10.40;86.10;;;;;;5014818;28;20125;-59
2023/03/14 09:27:48;;;;;;;3.22;0.70;;;10.40;85.90;;;;;;5000150;28;20051;-58
2023/03/14 09:30:21;;;;;;;3.47;0.98;;;10.40;85.80;;;;;;5013801;28;20057;-69
2023/03/14 09:33:01;;;;;;;2.50;0.50;;;10.40;85.60;;;;;;5014899;28;20119;-68
2023/03/14 09:35:36;;;;;;;3.47;0.65;;;10.50;85.70;;;;;;5017698;28;20049;-59
2023/03/14 09:38:09;;;;;;;1.00;0.40;;;10.60;85.70;;;;;;5014692;28;20460;-60
2023/03/14 09:40:43;;;;;;;2.05;0.65;;;10.70;85.60;;;;;;5015568;28;20377;-63
2023/03/14 09:43:17;;;;;;;1.38;0.50;;;10.70;85.50;;;;;;5015939;28;20489;-62
2023/03/14 09:45:51;;;;;;;2.65;0.63;;;10.70;85.30;;;;;;5036869;28;20136;-62
2023/03/14 09:48:30;;;;;;;2.08;0.50;;;10.70;85.10;;;;;;5036015;28;20051;-63
2023/03/14 09:51:12;;;;;;;1.75;0.50;;;10.70;84.90;;;;;;5035669;28;20119;-62
2023/03/14 09:53:47;;;;;;;2.38;0.70;;;10.70;85.00;;;;;;5016512;28;20046;-63
2023/03/14 09:56:17;;;;;;;1.65;0.60;;;10.70;85.00;;;;;;5014803;28;20042;-63
2023/03/14 09:58:54;;;;;;;2.78;0.60;;;10.70;84.90;;;;;;5017306;28;20539;-65
2023/03/14 10:01:30;;;;;;;1.33;0.38;;;10.70;84.80;;;;;;5017409;28;20049;-66
2023/03/14 10:04:07;;;;;;;1.20;0.35;;;10.70;84.60;;;;;;5018523;28;20056;-68
2023/03/14 10:06:41;;;;;;;1.23;0.50;;;10.70;84.60;;;;;;5016952;28;20389;-69
2023/03/14 10:09:24;;;;;;;1.05;0.47;;;10.70;84.40;;;;;;5015192;28;20129;-62
2023/03/14 10:12:00;;;;;;;0.70;0.30;;;10.80;84.40;;;;;;5011973;28;20053;-61
2023/03/14 10:14:35;;;;;;;1.08;0.20;;;10.80;84.10;;;;;;5017356;28;20054;-59
2023/03/14 10:17:10;;;;;;;1.70;0.30;;;10.70;83.80;;;;;;5014273;28;20100;-59
2023/03/14 10:19:56;;;;;;;2.03;0.30;;;10.80;83.60;;;;;;5014752;28;20514;-69
2023/03/14 10:22:32;;;;;;;2.00;0.40;;;10.90;83.80;;;;;;5015877;28;20096;-69
2023/03/14 10:25:25;;;;;;;2.13;0.38;;;10.80;83.70;;;;;;5015960;28;20041;-69
2023/03/14 10:28:00;;;;;;;1.02;0.40;;;10.90;83.70;;;;;;5014121;28;20076;-68
2023/03/14 10:30:43;;;;;;;1.27;0.40;;;10.90;83.60;;;;;;5016241;28;20412;-65
2023/03/14 10:33:22;;;;;;;1.35;0.40;;;10.80;84.00;;;;;;5015930;28;20081;-63
2023/03/14 10:36:04;;;;;;;1.02;0.30;;;10.90;84.60;;;;;;5015559;28;20116;-68
2023/03/14 10:38:39;;;;;;;0.77;0.40;;;10.80;85.00;;;;;;5014903;28;20092;-68
2023/03/14 10:41:20;;;;;;;1.02;0.38;;;10.90;85.10;;;;;;5013089;28;20086;-70
2023/03/14 10:43:57;;;;;;;1.85;0.40;;;10.90;85.30;;;;;;5015370;28;20049;-60
2023/03/14 10:46:33;;;;;;;1.90;0.40;;;10.90;85.60;;;;;;5017083;28;20609;-61
2023/03/14 10:49:29;;;;;;;1.48;0.40;;;10.90;85.70;;;;;;5009280;28;20192;-62
2023/03/14 10:52:13;;;;;;;2.25;0.30;;;10.90;85.80;;;;;;5015239;28;20405;-63
2023/03/14 10:54:50;;;;;;;1.35;0.25;;;10.90;86.10;;;;;;5013708;28;20120;-62
2023/03/14 10:57:23;;;;;;;1.10;0.47;;;10.90;86.30;;;;;;5016741;28;20057;-62
2023/03/14 10:59:57;;;;;;;0.50;0.40;;;10.90;86.10;;;;;;5014190;28;20550;-62
2023/03/14 11:02:41;;;;;;;1.20;0.45;;;10.90;86.90;;;;;;5016552;28;20042;-62
2023/03/14 11:05:28;;;;;;;0.68;0.40;;;10.90;86.80;;;;;;5010810;28;20073;-65
2023/03/14 11:08:07;;;;;;;2.58;0.60;;;11.00;86.90;;;;;;5034164;28;20045;-67
2023/03/14 11:10:47;;;;;;;1.05;0.50;;;10.90;87.00;;;;;;5015427;28;20037;-61
2023/03/14 11:13:26;;;;;;;1.45;0.30;;;11.00;87.20;;;;;;5035001;28;20049;-62
2023/03/14 11:16:05;;;;;;;3.70;0.40;;;11.10;86.90;;;;;;5035271;28;20490;-60
2023/03/14 11:18:53;;;;;;;0.90;0.30;;;11.10;86.80;;;;;;5035225;28;20087;-62
2023/03/14 11:21:47;;;;;;;1.30;0.35;;;11.10;86.60;;;;;;5034454;28;20373;-61
2023/03/14 11:24:45;;;;;;;1.63;0.38;;;11.10;86.60;;;;;;5035910;28;20095;-60
2023/03/14 11:27:25;;;;;;;0.57;0.30;;;11.10;86.60;;;;;;5036260;28;20135;-60
2023/03/14 11:30:04;;;;;;;1.85;0.40;;;11.10;86.60;;;;;;5035824;28;20050;-65
2023/03/14 11:32:51;;;;;;;1.33;0.50;;;11.10;86.80;;;;;;5029800;28;20139;-66
2023/03/14 11:35:29;;;;;;;2.72;0.63;;;11.10;86.80;;;;;;5033560;28;20411;-62
2023/03/14 11:38:13;;;;;;;2.83;0.70;;;11.10;87.00;;;;;;5011784;28;20521;-61
2023/03/14 11:40:48;;;;;;;2.55;1.00;;;11.00;87.00;;;;;;5012833;28;20095;-61
2023/03/14 11:43:29;;;;;;;2.13;0.50;;;11.00;87.00;;;;;;5012040;28;20547;-62
2023/03/14 11:46:07;;;;;;;1.60;0.40;;;11.00;86.90;;;;;;5012286;28;20045;-59
2023/03/14 11:48:46;;;;;;;1.60;0.30;;;11.00;87.10;;;;;;5013557;28;20048;-59
2023/03/14 11:51:25;;;;;;;0.80;0.30;;;11.00;87.00;;;;;;5013883;28;20049;-60
2023/03/14 11:54:09;;;;;;;4.47;0.50;;;11.00;87.10;;;;;;5015011;28;20137;-61
2023/03/14 11:56:49;;;;;;;0.82;0.40;;;11.00;87.10;;;;;;5011690;28;20052;-61
2023/03/14 11:59:30;;;;;;;2.42;0.50;;;10.90;87.20;;;;;;5013038;28;20489;-62
2023/03/14 12:02:10;;;;;;;1.15;0.57;;;10.90;87.30;;;;;;5013085;28;20058;-62
2023/03/14 12:04:55;;;;;;;3.55;0.80;;;10.90;87.50;;;;;;5014788;28;20050;-61
2023/03/14 12:07:41;;;;;;;2.78;0.95;;;10.80;87.70;;;;;;5015430;28;20042;-61
2023/03/14 12:10:15;;;;;;;3.55;0.95;;;10.80;87.90;;;;;;5033736;28;20052;-67
2023/03/14 12:12:49;;;;;;;2.60;0.82;;;10.80;88.00;;;;;;5033535;28;20140;-69
2023/03/14 12:15:24;;;;;;;2.88;0.80;;;10.70;88.10;;;;;;5037962;28;20449;-60
2023/03/14 12:17:58;;;;;;;2.95;0.80;;;10.80;88.30;;;;;;5038069;28;20053;-61
2023/03/14 12:20:31;;;;;;;2.97;0.90;;;10.80;88.10;;;;;;5038508;28;20123;-66
2023/03/14 12:23:06;;;;;;;3.75;1.05;;;10.80;88.10;;;;;;5018503;28;20057;-65
2023/03/14 12:25:40;;;;;;;4.25;1.27;;;10.80;88.20;;;;;;5020805;28;20033;-61
2023/03/14 12:28:21;;;;;;;2.75;1.08;;;10.80;88.50;;;;;;5008400;28;20067;-61
2023/03/14 12:30:55;;;;;;;4.68;1.00;;;10.70;88.60;;;;;;5031619;28;20058;-66
2023/03/14 12:33:36;;;;;;;2.97;0.80;;;10.80;88.60;;;;;;5029044;28;20128;-66
2023/03/14 12:36:28;;;;;;;3.72;1.00;;;10.80;88.60;;;;;;5019056;28;20045;-64
2023/03/14 12:39:14;;;;;;;2.65;0.95;;;10.70;88.80;;;;;;5016331;28;20045;-65
2023/03/14 12:41:52;;;;;;;3.10;1.10;;;10.80;88.90;;;;;;5036423;28;20045;-66
2023/03/14 12:44:51;;;;;;;3.28;0.90;;;10.80;89.00;;;;;;5038325;28;20052;-65
2023/03/14 12:47:51;;;;;;;2.50;0.93;;;10.80;88.80;;;;;;5036261;28;20119;-66
2023/03/14 12:50:34;;;;;;;2.40;0.80;;;10.70;89.00;;;;;;5017709;28;20065;-58
2023/03/14 12:53:44;;;;;;;5.13;0.85;;;10.50;86.90;;;;;;5013239;28;20091;-59
2023/03/14 12:56:41;;;;;;;3.35;0.50;;;10.30;85.90;;;;;;5018102;28;20046;-59
2023/03/14 12:59:32;;;;;;;0.68;0.32;;;10.10;85.60;;;;;;5016567;28;20077;-62
2023/03/14 13:02:22;;;;;;;3.28;0.70;;;10.00;85.00;;;;;;5017847;28;20056;-62
2023/03/14 13:05:05;;;;;;;1.83;0.35;;;9.90;85.90;;;;;;5017798;28;20116;-65
2023/03/14 13:08:04;;;;;;;1.70;0.50;;;9.90;85.60;;;;;;5017629;28;20061;-66
2023/03/14 13:10:46;;;;;;;0.85;0.30;;;9.90;85.00;;;;;;5014948;28;20065;-67
2023/03/14 13:13:22;;;;;;;0.82;0.30;;;9.90;85.50;;;;;;5017451;28;20049;-68
2023/03/14 13:15:59;;;;;;;3.03;0.70;;;9.90;85.10;;;;;;5018512;28;20039;-66
2023/03/14 13:18:38;;;;;;;2.28;0.73;;;9.90;85.00;;;;;;5017470;28;20132;-67
2023/03/14 13:21:16;;;;;;;2.88;0.80;;;9.90;85.50;;;;;;5017854;28;20042;-66
2023/03/14 13:23:59;;;;;;;2.42;0.70;;;9.90;84.90;;;;;;5014773;28;20468;-65
2023/03/14 13:26:37;;;;;;;1.23;0.60;;;10.00;85.30;;;;;;5037221;28;20045;-60
2023/03/14 13:29:17;;;;;;;2.28;0.80;;;10.00;84.70;;;;;;5035588;28;20573;-60
2023/03/14 13:31:52;;;;;;;1.73;0.60;;;10.00;85.10;;;;;;5037112;28;20107;-61
2023/03/14 13:34:35;;;;;;;1.05;0.47;;;10.00;84.50;;;;;;5020688;28;20157;-58
2023/03/14 13:37:17;;;;;;;1.98;0.50;;;10.00;84.70;;;;;;5015555;28;20041;-59
2023/03/14 13:39:51;;;;;;;2.17;0.43;;;10.10;84.50;;;;;;5016602;28;20042;-61
2023/03/14 13:42:26;;;;;;;2.25;0.50;;;10.00;84.80;;;;;;5013884;28;20471;-60
2023/03/14 13:45:01;;;;;;;1.75;0.60;;;10.00;84.30;;;;;;5007595;28;20125;-58
2023/03/14 13:47:39;;;;;;;1.40;0.60;;;10.00;84.50;;;;;;5016544;28;20049;-59